Time;durP1;ratioP1;P1;durP2;ratioP2;P2;SDS_P1;SDS_P2;PMS_P1;PMS_P2;Temp;Humidity;BMP_temperature;BMP_pressure;BME280_temperature;BME280_humidity;BME280_pressure;Samples;Min_cycle;Max_cycle;Signal;HPM_P1;HPM_P2
2022/04/22 00:00:09;;;;;;;;;3.67;3.00;;;;;22.70;70.26;100104.38;5077531;27;45261;-62
2022/04/22 00:02:35;;;;;;;;;2.00;2.00;;;;;22.70;70.59;100096.31;5077731;28;45443;-62
2022/04/22 00:05:02;;;;;;;;;6.67;3.67;;;;;22.69;70.85;100094.53;5077731;27;45445;-62
2022/04/22 00:07:28;;;;;;;;;3.00;3.00;;;;;22.67;71.16;100091.06;5093573;27;47387;-62
2022/04/22 00:09:54;;;;;;;;;3.00;3.00;;;;;22.68;71.08;100090.97;5084610;27;45506;-62
2022/04/22 00:12:20;;;;;;;;;3.00;3.00;;;;;22.68;70.97;100098.19;5098162;27;45492;-63
2022/04/22 00:14:45;;;;;;;;;3.00;3.00;;;;;22.68;71.14;100095.50;5097725;27;51155;-62
2022/04/22 00:17:10;;;;;;;;;5.00;3.33;;;;;;;;5097268;27;64408;-62
2022/04/22 00:19:35;;;;;;;;;4.67;3.00;;;;;22.66;71.90;100089.31;5097219;27;45407;-62
2022/04/22 00:22:01;;;;;;;;;3.00;3.00;;;;;22.66;72.01;100094.72;5096731;27;59204;-62
2022/04/22 00:24:26;;;;;;;;;2.33;2.33;;;;;22.65;71.86;100093.84;5097922;27;45452;-62
2022/04/22 00:26:51;;;;;;;;;3.33;3.33;;;;;22.65;72.14;100095.66;5079047;27;48260;-62
2022/04/22 00:29:17;;;;;;;;;5.00;3.33;;;;;22.65;71.87;100092.97;5097693;27;45346;-62
2022/04/22 00:31:42;;;;;;;;;5.00;3.33;;;;;22.65;72.28;100087.59;5097722;27;45862;-62
2022/04/22 00:34:08;;;;;;;;;4.00;4.00;;;;;22.64;72.41;100089.41;5097200;27;53155;-62
2022/04/22 00:36:33;;;;;;;;;3.00;3.00;;;;;22.64;72.10;100088.53;5092020;27;63593;-62
2022/04/22 00:38:58;;;;;;;;;4.00;3.00;;;;;22.62;72.24;100087.72;5089107;27;45365;-62
2022/04/22 00:41:24;;;;;;;;;3.67;3.00;;;;;22.62;72.37;100088.59;5097533;27;45165;-62
2022/04/22 00:43:50;;;;;;;;;3.00;3.00;;;;;22.62;72.43;100085.91;5097047;27;55611;-62
2022/04/22 00:46:16;;;;;;;;;3.00;3.00;;;;;22.62;72.40;100082.34;5072952;28;46496;-62
2022/04/22 00:48:41;;;;;;;;;3.00;3.00;;;;;22.62;72.97;100085.03;5076915;28;46985;-62
2022/04/22 00:51:08;;;;;;;;;3.33;3.33;;;;;22.61;72.33;100086.00;5096913;27;45429;-62
2022/04/22 00:53:38;;;;;;;;;3.33;3.33;;;;;22.60;72.51;100089.63;5092119;27;45626;-62
2022/04/22 00:56:05;;;;;;;;;4.00;4.00;;;;;22.60;72.58;100087.81;5082192;27;46621;-62
2022/04/22 00:58:31;;;;;;;;;4.00;3.00;;;;;22.60;72.43;100086.94;5095359;27;45394;-62
2022/04/22 01:00:56;;;;;;;;;2.00;2.00;;;;;22.60;72.38;100086.94;5096123;27;45372;-62
2022/04/22 01:03:22;;;;;;;;;5.00;4.00;;;;;22.59;72.39;100083.38;5100546;27;56636;-62
2022/04/22 01:11:17;;;;;;;;;3.33;3.33;;;;;22.60;72.32;100073.50;5078953;27;45453;-61
2022/04/22 01:13:44;;;;;;;;;2.00;2.00;;;;;22.59;72.47;100064.56;5101128;27;45302;-62
2022/04/22 01:16:09;;;;;;;;;2.00;2.00;;;;;22.60;72.44;100066.28;5100694;27;46933;-62
2022/04/22 01:18:35;;;;;;;;;3.33;2.67;;;;;22.60;72.26;100065.41;5100173;27;61713;-62
2022/04/22 01:21:01;;;;;;;;;3.00;3.00;;;;;22.60;72.53;100073.50;5100708;27;45468;-62
2022/04/22 01:23:27;;;;;;;;;3.33;3.33;;;;;22.59;72.47;100066.38;5100587;27;45306;-62
2022/04/22 01:25:53;;;;;;;;;4.00;4.00;;;;;22.60;72.85;100065.41;5098208;27;47245;-62
2022/04/22 01:28:19;;;;;;;;;3.33;3.00;;;;;22.59;72.46;100058.31;5097222;27;45499;-62
2022/04/22 01:30:44;;;;;;;;;5.00;3.67;;;;;22.60;72.34;100065.41;5081749;27;45349;-62
2022/04/22 01:33:09;;;;;;;;;3.00;3.00;;;;;22.60;72.40;100062.72;5099834;27;55711;-62
2022/04/22 01:35:35;;;;;;;;;3.67;3.67;;;;;22.59;72.63;100055.63;5089267;27;60584;-62
2022/04/22 01:38:00;;;;;;;;;3.67;3.67;;;;;22.60;72.54;100060.03;5078878;28;63451;-62
2022/04/22 01:40:25;;;;;;;;;5.00;4.00;;;;;22.60;72.61;100055.53;5079212;28;57345;-62
2022/04/22 01:42:51;;;;;;;;;4.33;3.00;;;;;22.58;72.71;100046.63;5079248;28;55334;-62
2022/04/22 01:45:16;;;;;;;;;2.67;2.67;;;;;22.59;72.29;100048.41;5084116;27;64778;-62
2022/04/22 01:47:41;;;;;;;;;3.33;3.33;;;;;22.60;72.34;100051.97;5083127;27;59920;-62
2022/04/22 01:50:07;;;;;;;;;6.33;4.00;;;;;22.60;72.57;100049.28;5099958;27;45861;-62
2022/04/22 01:52:34;;;;;;;;;4.00;4.00;;;;;22.59;72.49;100047.53;5093585;27;45522;-62
2022/04/22 01:55:00;;;;;;;;;3.00;3.00;;;;;22.59;72.86;100047.53;5081659;27;46640;-61
2022/04/22 01:57:25;;;;;;;;;3.00;3.00;;;;;22.59;72.54;100039.47;5098931;27;58226;-62
2022/04/22 01:59:50;;;;;;;;;3.00;3.00;;;;;22.59;72.56;100043.03;5099752;27;54793;-62
2022/04/22 02:02:17;;;;;;;;;4.00;2.00;;;;;22.59;72.42;100042.16;5100252;27;45324;-62
2022/04/22 02:04:43;;;;;;;;;3.00;3.00;;;;;22.58;72.52;100040.38;5093683;27;47491;-62
2022/04/22 02:07:08;;;;;;;;;4.00;4.00;;;;;22.58;72.82;100040.38;5079210;28;45351;-62
2022/04/22 02:09:34;;;;;;;;;4.00;4.00;;;;;22.58;73.10;100037.69;5088907;27;53593;-62
2022/04/22 02:11:59;;;;;;;;;4.00;4.00;;;;;22.58;72.86;100035.88;5087991;27;45442;-62
2022/04/22 02:14:25;;;;;;;;;4.00;4.00;;;;;22.57;73.05;100033.28;5079304;28;46623;-62
2022/04/22 02:16:52;;;;;;;;;5.00;3.00;;;;;22.57;73.36;100036.84;5079741;28;45333;-62
2022/04/22 02:19:18;;;;;;;;;3.00;3.00;;;;;22.56;72.79;100040.47;5092750;27;45550;-62
2022/04/22 02:21:43;;;;;;;;;3.00;3.00;;;;;22.55;72.81;100036.06;5089422;27;45487;-62
2022/04/22 02:24:09;;;;;;;;;3.00;3.00;;;;;22.57;72.79;100035.97;5079085;28;46666;-62
2022/04/22 02:28:31;;;;;;;;;4.00;4.00;;;;;22.53;73.05;100024.50;5092594;27;45426;-62
2022/04/22 02:29:20;;;;;;;;;5.00;4.00;;;;;22.53;73.06;100031.69;5099593;27;45291;-62
2022/04/22 02:31:46;;;;;;;;;5.00;3.67;;;;;22.53;73.14;100032.59;5099387;27;45153;-62
2022/04/22 02:34:12;;;;;;;;;4.33;4.33;;;;;22.51;72.95;100031.78;5098743;27;47812;-62
2022/04/22 02:36:37;;;;;;;;;3.00;3.00;;;;;22.51;73.15;100031.78;5098989;27;45484;-62
2022/04/22 02:39:03;;;;;;;;;3.67;3.67;;;;;22.51;73.32;100015.63;5098941;27;58939;-62
2022/04/22 02:46:56;;;;;;;;;3.00;3.00;;;;;22.49;73.27;100022.91;5089781;27;45237;-62
2022/04/22 02:49:21;;;;;;;;;3.00;3.00;;;;;22.48;73.36;100018.50;5091680;27;45192;-62
2022/04/22 02:51:47;;;;;;;;;3.00;3.00;;;;;22.49;73.61;100017.53;5080367;27;58661;-62
2022/04/22 02:54:12;;;;;;;;;3.00;3.00;;;;;22.48;73.32;100018.50;5098900;27;47148;-62
2022/04/22 02:56:38;;;;;;;;;3.67;3.67;;;;;22.47;73.47;100022.97;5099166;27;45151;-62
2022/04/22 02:59:04;;;;;;;;;4.67;3.00;;;;;22.47;73.22;100014.91;5069846;28;45251;-62
2022/04/22 03:01:30;;;;;;;;;3.00;3.00;;;;;22.47;73.49;100009.53;5078736;28;45660;-62
2022/04/22 03:03:55;;;;;;;;;2.00;2.00;;;;;22.49;73.15;100014.84;5089180;27;53027;-62
2022/04/22 03:06:20;;;;;;;;;3.00;3.00;;;;;22.49;73.45;100014.84;5091968;27;45559;-62
2022/04/22 03:08:46;;;;;;;;;3.00;3.00;;;;;22.52;73.09;100011.97;5090782;27;45928;-62
2022/04/22 03:11:11;;;;;;;;;3.67;3.00;;;;;22.53;73.24;100011.06;5093700;27;57089;-62
2022/04/22 03:13:39;;;;;;;;;3.00;3.00;;;;;22.55;73.35;100006.47;5078294;28;46224;-62
2022/04/22 03:16:04;;;;;;;;;3.67;3.67;;;;;22.58;73.25;100008.09;5078207;27;46088;-62
2022/04/22 03:18:30;;;;;;;;;3.33;3.33;;;;;22.59;72.96;99999.09;5088160;27;45248;-62
2022/04/22 03:20:56;;;;;;;;;3.00;3.00;;;;;22.60;73.09;100004.41;5098654;27;45343;-62
2022/04/22 03:23:21;;;;;;;;;3.00;3.00;;;;;22.60;72.97;99999.03;5098097;27;47579;-62
2022/04/22 03:25:47;;;;;;;;;3.67;3.67;;;;;22.62;72.81;100007.00;5098184;27;60765;-62
2022/04/22 03:28:12;;;;;;;;;4.00;4.00;;;;;22.61;72.77;99998.06;5098863;27;45257;-62
2022/04/22 03:30:37;;;;;;;;;3.00;3.00;;;;;22.60;72.56;99999.03;5098262;27;53932;-62
2022/04/22 03:33:03;;;;;;;;;4.00;4.00;;;;;22.63;72.81;99998.84;5097866;27;53069;-62
2022/04/22 03:35:29;;;;;;;;;5.00;4.33;;;;;22.63;72.39;99998.84;5098635;27;45164;-62
2022/04/22 03:37:55;;;;;;;;;4.00;4.00;;;;;22.63;72.77;99998.84;5098137;27;45396;-62
2022/04/22 03:40:21;;;;;;;;;5.00;5.00;;;;;22.64;72.57;99999.75;5096864;27;45634;-62
2022/04/22 03:42:46;;;;;;;;;3.00;3.00;;;;;22.63;72.33;99996.16;5097693;27;61962;-62
2022/04/22 03:45:11;;;;;;;;;3.00;3.00;;;;;22.65;72.29;99998.78;5097287;27;63347;-62
2022/04/22 03:47:37;;;;;;;;;3.00;3.00;;;;;22.64;72.04;99988.97;5078059;27;45368;-61
2022/04/22 03:50:03;;;;;;;;;5.00;5.00;;;;;22.65;72.31;99993.41;5086580;27;45514;-62
2022/04/22 03:52:29;;;;;;;;;5.00;4.00;;;;;22.65;72.18;99990.72;5089747;27;46207;-62
2022/04/22 03:54:54;;;;;;;;;5.00;4.00;;;;;22.65;72.12;99988.03;5092491;27;45362;-62
2022/04/22 04:00:03;;;;;;;;;5.00;4.00;;;;;22.65;72.31;99988.03;5079195;27;45348;-62
2022/04/22 04:02:29;;;;;;;;;4.00;4.00;;;;;22.64;72.37;99987.16;5077787;27;47122;-62
2022/04/22 04:04:54;;;;;;;;;5.33;5.33;;;;;22.66;71.85;99992.44;5095803;27;65349;-62
2022/04/22 04:07:19;;;;;;;;;6.33;6.00;;;;;22.65;71.82;99991.56;5097406;27;60211;-62
2022/04/22 04:17:56;;;;;;;;;12.00;9.00;;;;;22.65;71.74;99988.88;5084988;27;45412;-62
2022/04/22 04:23:14;;;;;;;;;11.33;11.33;;;;;22.65;71.67;99988.03;5097337;27;45899;-62
2022/04/22 04:25:41;;;;;;;;;12.00;11.67;;;;;22.64;71.65;99983.59;5097650;27;45504;-62
2022/04/22 04:28:09;;;;;;;;;13.33;11.67;;;;;22.64;71.76;99981.78;5096708;27;45402;-63
2022/04/22 04:30:36;;;;;;;;;11.00;11.00;;;;;22.64;71.70;99972.84;5092305;27;45227;-63
2022/04/22 04:33:02;;;;;;;;;16.67;13.33;;;;;22.64;71.80;99980.91;5076980;28;47310;-63
2022/04/22 04:35:28;;;;;;;;;18.00;12.33;;;;;22.64;71.82;99968.31;5084132;27;45556;-64
2022/04/22 04:37:53;;;;;;;;;13.67;11.00;;;;;22.65;71.84;99978.13;5095602;27;58623;-64
2022/04/22 04:40:18;;;;;;;;;12.67;12.33;;;;;22.65;71.91;99971.88;5085827;27;55541;-64
2022/04/22 04:42:44;;;;;;;;;12.67;12.00;;;;;22.65;71.85;99972.75;5082853;27;57814;-64
2022/04/22 04:45:09;;;;;;;;;12.67;12.67;;;;;22.67;71.47;99978.03;5096376;27;45511;-63
2022/04/22 04:47:42;;;;;;;;;16.67;12.67;;;;;;;;5085990;27;45374;-63
2022/04/22 04:50:08;;;;;;;;;17.00;14.00;;;;;22.67;71.71;99978.03;5096692;27;45461;-64
2022/04/22 04:52:34;;;;;;;;;14.33;12.67;;;;;22.69;71.64;99976.13;5089653;27;47437;-64
2022/04/22 04:55:00;;;;;;;;;14.67;14.67;;;;;22.68;71.59;99963.63;5096569;27;45515;-63
2022/04/22 04:57:26;;;;;;;;;21.00;15.33;;;;;22.68;71.20;99969.88;5092164;27;45511;-64
2022/04/22 04:59:51;;;;;;;;;11.67;11.67;;;;;22.69;71.33;99973.44;5093837;27;45688;-63
2022/04/22 05:02:16;;;;;;;;;16.33;16.33;;;;;22.69;71.53;99970.75;5096750;27;64971;-64
2022/04/22 05:04:42;;;;;;;;;17.00;12.67;;;;;22.68;71.53;99967.19;5068224;22;49085;-66
2022/04/22 05:07:07;;;;;;;;;16.33;14.33;;;;;22.70;71.28;99964.44;5075566;28;45767;-64
2022/04/22 05:09:32;;;;;;;;;14.33;14.33;;;;;22.71;71.49;99958.09;5075125;28;58261;-62
2022/04/22 05:11:58;;;;;;;;;15.00;13.00;;;;;22.69;71.36;99952.78;5075627;28;64093;-62
2022/04/22 05:14:25;;;;;;;;;15.00;12.33;;;;;22.71;71.49;99960.78;5074629;28;60309;-62
2022/04/22 05:16:50;;;;;;;;;15.67;14.33;;;;;22.70;71.02;99954.53;5074297;28;45539;-63
2022/04/22 05:19:16;;;;;;;;;19.33;15.33;;;;;22.69;71.23;99955.50;5075482;28;55995;-62
2022/04/22 05:21:41;;;;;;;;;14.33;14.33;;;;;22.68;71.35;99958.25;5074008;28;65183;-63
2022/04/22 05:24:07;;;;;;;;;15.00;13.33;;;;;22.69;71.22;99962.66;5075166;28;45599;-64
2022/04/22 05:26:32;;;;;;;;;16.33;13.33;;;;;22.68;71.43;99956.41;5072448;28;45627;-63
2022/04/22 05:28:58;;;;;;;;;16.33;14.67;;;;;22.70;71.42;99957.22;5068869;28;45402;-63
2022/04/22 05:34:07;;;;;;;;;14.33;12.00;;;;;22.74;71.05;99961.50;5068811;28;45515;-63
2022/04/22 05:36:32;;;;;;;;;16.67;12.33;;;;;22.76;71.07;99961.41;5074869;28;59683;-63
2022/04/22 05:38:57;;;;;;;;;11.00;11.00;;;;;22.77;71.26;99957.75;5075156;28;45554;-63
2022/04/22 05:41:23;;;;;;;;;16.67;13.33;;;;;22.78;71.18;99956.81;5077231;28;67798;-63
2022/04/22 05:43:48;;;;;;;;;18.33;15.33;;;;;22.79;71.20;99955.84;5074529;28;58910;-63
2022/04/22 05:46:13;;;;;;;;;13.33;12.33;;;;;22.80;70.95;99957.59;5076883;28;48876;-60
2022/04/22 05:48:39;;;;;;;;;17.33;14.67;;;;;22.80;71.10;99957.59;5076609;28;45658;-61
2022/04/22 05:51:04;;;;;;;;;16.33;15.00;;;;;22.82;70.77;99958.38;5055585;28;47864;-62
2022/04/22 05:53:30;;;;;;;;;18.33;16.33;;;;;22.82;70.72;99965.59;5076473;28;45406;-63
2022/04/22 05:55:55;;;;;;;;;17.33;14.33;;;;;22.81;71.09;99959.34;5074650;28;55092;-62
2022/04/22 05:58:21;;;;;;;;;19.00;17.00;;;;;22.83;70.59;99973.56;5075818;28;45554;-63
2022/04/22 06:00:47;;;;;;;;;17.00;15.33;;;;;22.83;70.51;99964.63;5076422;28;46404;-63
2022/04/22 06:03:12;;;;;;;;;19.00;17.00;;;;;22.83;70.77;99970.88;5074843;28;45774;-63
2022/04/22 06:05:37;;;;;;;;;15.67;13.33;;;;;22.83;70.65;99975.41;5076529;28;55602;-63
2022/04/22 06:10:51;;;;;;;;;17.33;16.00;;;;;22.83;70.70;99975.41;5072060;28;46907;-63
2022/04/22 06:13:16;;;;;;;;;21.00;18.00;;;;;22.82;70.66;99982.63;5067641;28;45406;-62
2022/04/22 06:15:42;;;;;;;;;21.00;19.33;;;;;22.82;70.33;99976.34;5074168;28;45838;-62
2022/04/22 06:18:07;;;;;;;;;18.67;16.67;;;;;22.82;70.42;99981.75;5074138;28;53901;-62
2022/04/22 06:20:33;;;;;;;;;20.33;16.33;;;;;22.81;70.13;99983.56;5070551;28;46530;-63
2022/04/22 06:22:58;;;;;;;;;17.67;14.33;;;;;22.82;70.60;99970.97;5076108;28;45444;-62
2022/04/22 06:25:24;;;;;;;;;21.67;17.67;;;;;22.82;70.30;99968.28;5076711;28;45540;-62
2022/04/22 06:27:49;;;;;;;;;17.67;16.33;;;;;22.81;70.52;99970.09;5077225;28;45327;-62
2022/04/22 06:30:17;;;;;;;;;19.33;17.33;;;;;22.80;70.17;99962.09;5066298;28;47513;-62
2022/04/22 06:32:44;;;;;;;;;18.33;16.67;;;;;22.79;70.64;99965.75;5074215;28;45407;-62
2022/04/22 06:35:11;;;;;;;;;22.67;17.67;;;;;22.79;70.30;99969.31;5072020;28;45354;-62
2022/04/22 06:37:39;;;;;;;;;21.00;17.67;;;;;22.79;70.64;99971.13;5071235;28;45543;-66
2022/04/22 06:45:47;;;;;;;;;18.67;17.00;;;;;22.77;70.87;99968.53;5074231;28;46391;-62
2022/04/22 06:48:30;;;;;;;;;18.00;16.67;;;;;22.76;70.36;99961.41;5070931;28;45462;-62
2022/04/22 06:50:56;;;;;;;;;18.00;15.33;;;;;22.75;70.41;99957.84;5065343;28;47443;-62
2022/04/22 06:53:23;;;;;;;;;16.67;14.33;;;;;22.74;70.42;99961.50;5064078;28;45528;-62
2022/04/22 06:55:49;;;;;;;;;15.33;13.67;;;;;22.73;70.42;99962.44;5072572;28;45501;-62
2022/04/22 06:58:16;;;;;;;;;16.67;13.33;;;;;22.74;70.36;99960.59;5075847;28;46110;-62
2022/04/22 07:00:42;;;;;;;;;14.67;14.67;;;;;22.73;70.56;99964.25;5073664;28;46767;-62
2022/04/22 07:03:09;;;;;;;;;11.67;10.33;;;;;22.73;70.45;99966.94;5073893;28;45517;-62
2022/04/22 07:05:35;;;;;;;;;16.33;14.00;;;;;22.73;70.76;99966.94;5076377;28;45583;-62
2022/04/22 07:08:02;;;;;;;;;15.00;12.33;;;;;22.71;70.18;99956.25;5072253;28;45505;-61
2022/04/22 07:10:29;;;;;;;;;13.67;13.67;;;;;22.72;70.69;99957.13;5064725;28;47597;-62
2022/04/22 07:12:56;;;;;;;;;13.67;13.00;;;;;22.71;70.19;99958.09;5071908;28;45558;-61
2022/04/22 07:15:22;;;;;;;;;12.33;11.00;;;;;22.72;70.95;99957.13;5073728;28;45516;-61
2022/04/22 07:17:47;;;;;;;;;16.67;11.67;;;;;22.73;71.06;99950.78;5071693;28;46180;-62
2022/04/22 07:20:13;;;;;;;;;20.00;14.00;;;;;22.72;70.73;99946.38;5072133;28;47265;-62
2022/04/22 07:22:40;;;;;;;;;12.33;10.67;;;;;22.71;71.32;99941.94;5074883;28;45651;-62
2022/04/22 07:25:07;;;;;;;;;13.00;11.33;;;;;22.70;71.43;99949.16;5068427;28;45526;-62
2022/04/22 07:27:34;;;;;;;;;10.67;10.33;;;;;22.71;71.66;99952.72;5073438;28;45900;-62
2022/04/22 07:30:00;;;;;;;;;16.33;11.33;;;;;22.70;71.87;99957.22;5074342;28;46469;-62
2022/04/22 07:32:26;;;;;;;;;12.00;9.00;;;;;22.70;72.22;99948.28;5069775;28;45430;-62
2022/04/22 07:34:53;;;;;;;;;11.33;10.33;;;;;22.70;72.36;99950.97;5072050;28;45469;-62
2022/04/22 07:37:19;;;;;;;;;14.33;11.33;;;;;22.70;72.13;99949.16;5069102;28;45725;-62
2022/04/22 07:39:44;;;;;;;;;12.00;10.00;;;;;22.69;72.89;99949.22;5066870;28;47735;-62
2022/04/22 07:42:17;;;;;;;;;9.00;9.00;;;;;22.68;72.88;99942.97;5072566;28;45387;-62
2022/04/22 07:47:35;;;;;;;;;13.00;11.00;;;;;22.67;73.29;99951.13;5067034;28;45467;-62
2022/04/22 07:50:05;;;;;;;;;9.33;9.33;;;;;22.67;73.61;99943.91;5074332;28;46714;-62
2022/04/22 07:52:34;;;;;;;;;12.33;10.33;;;;;;;;5066839;28;45547;-62
2022/04/22 07:54:59;;;;;;;;;12.33;10.00;;;;;22.66;74.25;99938.63;5072954;28;45766;-62
2022/04/22 07:57:25;;;;;;;;;12.00;9.33;;;;;22.66;74.18;99938.63;5071768;28;45362;-62
2022/04/22 07:59:50;;;;;;;;;13.00;10.00;;;;;22.66;74.12;99941.31;5069498;28;47117;-62
2022/04/22 08:02:16;;;;;;;;;7.33;7.33;;;;;22.65;74.69;99943.13;5071668;28;66618;-62
2022/04/22 08:04:42;;;;;;;;;12.33;11.00;;;;;;;;5073910;28;45458;-62
2022/04/22 08:07:08;;;;;;;;;8.67;8.00;;;;;22.65;74.92;99945.84;5070816;28;45685;-63
2022/04/22 08:09:34;;;;;;;;;8.00;8.00;;;;;22.66;75.07;99941.31;5069663;28;45587;-62
2022/04/22 08:12:00;;;;;;;;;8.00;7.00;;;;;22.65;74.92;99950.34;5074033;28;45410;-62
2022/04/22 08:14:27;;;;;;;;;11.00;8.00;;;;;22.63;75.29;99953.09;5074192;28;45358;-62
2022/04/22 08:16:55;;;;;;;;;9.67;7.00;;;;;22.64;75.14;99948.63;5074359;28;45441;-62
2022/04/22 08:19:21;;;;;;;;;8.00;7.67;;;;;22.64;75.34;99954.00;5053521;28;46709;-62
2022/04/22 08:21:46;;;;;;;;;5.67;5.67;;;;;22.63;75.55;99952.22;5070056;28;64409;-62
2022/04/22 08:24:12;;;;;;;;;8.00;6.67;;;;;22.62;75.53;99937.91;5071398;28;45620;-62
2022/04/22 08:26:38;;;;;;;;;9.67;7.00;;;;;22.62;75.54;99940.59;5072620;28;45499;-62
2022/04/22 08:29:04;;;;;;;;;9.33;8.00;;;;;22.61;75.84;99940.69;5067422;28;46446;-62
2022/04/22 08:31:29;;;;;;;;;6.67;6.67;;;;;22.60;75.94;99939.81;5072307;28;45484;-62
2022/04/22 08:33:57;;;;;;;;;7.00;6.00;;;;;22.60;75.66;99934.44;5074989;28;45608;-62
2022/04/22 08:36:30;;;;;;;;;7.00;7.00;;;;;22.59;76.15;99937.22;5072936;28;45634;-62
2022/04/22 08:38:59;;;;;;;;;6.00;6.00;;;;;22.59;76.38;99930.00;5065092;28;46498;-62
2022/04/22 08:41:26;;;;;;;;;8.33;7.33;;;;;22.58;76.51;99935.44;5073616;28;45317;-62
2022/04/22 08:43:53;;;;;;;;;8.00;7.00;;;;;22.57;77.15;99929.22;5072804;28;45607;-62
2022/04/22 08:51:49;;;;;;;;;7.00;5.67;;;;;22.55;77.72;99920.34;5063205;28;45508;-63
2022/04/22 08:54:16;;;;;;;;;4.00;4.00;;;;;22.56;77.90;99915.84;5072016;28;45510;-62
2022/04/22 08:56:42;;;;;;;;;8.33;5.00;;;;;22.56;78.08;99915.84;5071831;28;45591;-62
2022/04/22 08:59:09;;;;;;;;;5.00;5.00;;;;;22.53;77.94;99916.91;5060504;28;47243;-62
2022/04/22 09:01:35;;;;;;;;;9.00;6.67;;;;;22.53;78.05;99918.69;5062905;28;45556;-62
2022/04/22 09:04:03;;;;;;;;;6.00;6.00;;;;;22.54;77.68;99921.31;5070135;28;45463;-62
2022/04/22 09:06:29;;;;;;;;;7.00;5.00;;;;;22.54;78.24;99920.44;5070287;28;45600;-62
2022/04/22 09:08:57;;;;;;;;;6.33;5.00;;;;;22.53;78.49;99916.00;5054720;28;66908;-62
2022/04/22 09:11:23;;;;;;;;;5.33;5.33;;;;;22.53;78.25;99916.00;5049656;28;45506;-62
2022/04/22 09:13:49;;;;;;;;;8.67;5.33;;;;;22.54;78.31;99917.75;5066639;28;45695;-62
2022/04/22 09:16:21;;;;;;;;;5.67;5.33;;;;;22.51;78.39;99913.41;5076302;28;45557;-61
2022/04/22 09:18:46;;;;;;;;;5.00;4.00;;;;;22.52;78.30;99911.56;5076511;28;46398;-62
2022/04/22 09:21:18;;;;;;;;;7.00;5.00;;;;;22.49;78.70;99916.19;5073783;28;59409;-62
2022/04/22 09:23:46;;;;;;;;;7.00;6.00;;;;;22.51;78.51;99915.22;5072243;28;45402;-63
2022/04/22 09:26:22;;;;;;;;;5.00;5.00;;;;;22.50;78.61;99903.59;5072253;28;45599;-62
2022/04/22 09:29:05;;;;;;;;;6.67;4.00;;;;;22.49;78.85;99900.03;5069308;28;47511;-61
2022/04/22 09:31:47;;;;;;;;;7.00;4.67;;;;;22.48;79.13;99902.81;5073951;28;45825;-62
2022/04/22 09:34:12;;;;;;;;;6.00;5.00;;;;;22.48;79.07;99895.59;5074232;28;45457;-62
2022/04/22 09:44:57;;;;;;;;;6.33;4.00;;;;;22.46;79.32;99893.94;5076449;28;45351;-62
2022/04/22 09:47:29;;;;;;;;;5.00;5.00;;;;;22.45;79.42;99893.06;5067793;28;45406;-62
2022/04/22 09:49:55;;;;;;;;;5.00;5.00;;;;;22.45;79.14;99893.06;5069715;28;47518;-62
2022/04/22 09:52:25;;;;;;;;;3.67;3.67;;;;;22.45;79.70;99890.38;5073520;28;45572;-62
2022/04/22 09:55:06;;;;;;;;;3.67;3.67;;;;;22.45;79.85;99893.06;5071945;28;45467;-62
2022/04/22 09:57:58;;;;;;;;;3.00;3.00;;;;;22.45;79.27;99890.38;5071503;28;47236;-62
2022/04/22 10:00:30;;;;;;;;;5.00;5.00;;;;;22.44;79.62;99890.47;5066739;28;46844;-62
2022/04/22 10:02:55;;;;;;;;;6.00;4.00;;;;;22.43;79.54;99889.59;5070873;28;45385;-62
2022/04/22 10:05:23;;;;;;;;;5.33;5.00;;;;;22.43;79.71;99888.72;5071136;28;45546;-62
2022/04/22 10:07:56;;;;;;;;;4.00;4.00;;;;;22.43;79.83;99880.66;5066506;28;45948;-62
2022/04/22 10:10:29;;;;;;;;;5.33;5.33;;;;;22.43;79.69;99875.28;5077184;27;46615;-62
2022/04/22 10:12:57;;;;;;;;;4.00;4.00;;;;;22.41;80.05;99874.47;5077112;27;45566;-62
2022/04/22 10:15:26;;;;;;;;;5.00;5.00;;;;;22.42;80.38;99868.13;5058492;27;45516;-62
2022/04/22 10:17:52;;;;;;;;;6.00;4.00;;;;;22.43;80.23;99872.59;5068846;28;45438;-62
2022/04/22 10:20:19;;;;;;;;;4.67;4.33;;;;;22.42;80.54;99877.06;5073077;28;46338;-62
2022/04/22 10:22:48;;;;;;;;;4.00;4.00;;;;;22.42;80.03;99877.06;5074544;28;45535;-61
2022/04/22 10:25:14;;;;;;;;;6.33;5.00;;;;;22.43;80.43;99872.59;5071364;27;45329;-62
2022/04/22 10:27:39;;;;;;;;;4.00;3.00;;;;;22.42;80.54;99860.06;5073196;28;45399;-62
2022/04/22 10:30:09;;;;;;;;;5.00;4.00;;;;;22.43;80.79;99868.06;5076187;28;46551;-61
2022/04/22 10:32:36;;;;;;;;;4.00;4.00;;;;;22.43;80.73;99868.06;5058363;28;45402;-62
2022/04/22 10:35:03;;;;;;;;;3.00;3.00;;;;;22.43;81.00;99864.53;5068826;28;45486;-62
2022/04/22 10:37:28;;;;;;;;;7.00;4.00;;;;;22.42;81.08;99860.94;5074207;28;45348;-62
2022/04/22 10:39:56;;;;;;;;;4.00;4.00;;;;;22.43;80.88;99851.94;5072992;28;46488;-62
2022/04/22 10:42:31;;;;;;;;;3.67;3.00;;;;;22.44;80.95;99850.97;5072731;28;45442;-62
2022/04/22 10:47:46;;;;;;;;;4.33;4.33;;;;;22.44;81.01;99861.75;5073610;28;45510;-61
2022/04/22 10:50:39;;;;;;;;;4.67;4.67;;;;;22.45;81.30;99866.16;5071498;28;46449;-62
2022/04/22 10:53:09;;;;;;;;;5.00;3.00;;;;;22.45;81.31;99859.91;5066909;28;45526;-62
2022/04/22 10:55:42;;;;;;;;;3.67;3.67;;;;;22.43;81.17;99857.31;5073774;28;45737;-62
2022/04/22 10:58:13;;;;;;;;;3.00;3.00;;;;;22.44;80.99;99860.88;5074150;28;45568;-61
2022/04/22 11:00:48;;;;;;;;;3.00;3.00;;;;;22.45;81.15;99859.91;5055860;28;47543;-62
2022/04/22 11:03:16;;;;;;;;;3.00;3.00;;;;;22.44;81.34;99850.13;5072053;28;45359;-62
2022/04/22 11:06:00;;;;;;;;;4.33;4.00;;;;;22.45;81.43;99849.16;5065831;28;45398;-61
2022/04/22 11:08:38;;;;;;;;;5.00;5.00;;;;;22.45;81.40;99843.78;5073580;28;45360;-61
2022/04/22 11:11:05;;;;;;;;;4.00;4.00;;;;;22.44;80.93;99837.53;5072590;28;46553;-61
2022/04/22 11:13:39;;;;;;;;;6.00;4.67;;;;;22.44;81.36;99832.16;5072936;28;45603;-62
2022/04/22 11:16:13;;;;;;;;;5.00;4.00;;;;;22.45;81.42;99827.63;5077608;28;45447;-62
2022/04/22 11:18:40;;;;;;;;;6.00;3.00;;;;;22.44;81.52;99832.16;5077327;28;45461;-62
2022/04/22 11:21:32;;;;;;;;;4.33;3.00;;;;;22.46;81.13;99838.31;5058729;28;47554;-61
2022/04/22 11:23:57;;;;;;;;;4.00;2.67;;;;;22.45;80.87;99843.78;5047051;28;45556;-62
2022/04/22 11:26:23;;;;;;;;;6.00;4.67;;;;;22.47;81.44;99841.88;5077955;28;45328;-62
2022/04/22 11:28:49;;;;;;;;;5.00;3.67;;;;;22.45;81.64;99833.88;5076675;28;45873;-62
2022/04/22 11:31:15;;;;;;;;;3.00;3.00;;;;;22.46;81.41;99829.38;5075128;28;47400;-61
2022/04/22 11:33:40;;;;;;;;;3.33;3.00;;;;;22.46;81.50;99830.22;5077282;28;45216;-61
2022/04/22 11:36:06;;;;;;;;;4.33;3.00;;;;;22.44;81.47;99820.53;5076265;28;45446;-62
2022/04/22 11:38:32;;;;;;;;;3.00;3.00;;;;;22.44;81.54;99824.09;5077145;28;45343;-62
2022/04/22 11:40:57;;;;;;;;;3.00;3.00;;;;;22.44;81.89;99823.22;5076746;28;46487;-62
2022/04/22 11:43:23;;;;;;;;;3.00;2.33;;;;;22.45;82.02;99828.50;5075734;28;45386;-61
2022/04/22 11:45:50;;;;;;;;;2.67;2.67;;;;;22.44;82.28;99824.09;5071744;28;45495;-61
2022/04/22 11:48:20;;;;;;;;;5.00;3.00;;;;;22.45;82.10;99819.56;5076411;28;45541;-64
2022/04/22 11:50:46;;;;;;;;;4.33;3.00;;;;;22.45;81.62;99822.25;5075567;28;47441;-63
2022/04/22 11:53:17;;;;;;;;;3.00;3.00;;;;;22.45;82.26;99822.25;5074313;28;45531;-62
2022/04/22 11:55:44;;;;;;;;;3.33;3.00;;;;;22.43;82.25;99811.59;5075612;28;45412;-63
2022/04/22 11:58:11;;;;;;;;;3.00;3.00;;;;;22.44;82.05;99816.00;5075425;28;45570;-62
2022/04/22 12:06:16;;;;;;;;;6.00;3.00;;;;;22.44;82.45;99807.06;5049725;28;45619;-63
2022/04/22 12:09:05;;;;;;;;;4.00;4.00;;;;;22.45;81.83;99820.44;5072084;28;45625;-63
2022/04/22 12:11:38;;;;;;;;;3.33;3.33;;;;;22.43;81.73;99806.22;5067012;28;46586;-64
2022/04/22 12:14:03;;;;;;;;;4.00;3.00;;;;;22.44;81.96;99794.50;5071624;28;45456;-63
2022/04/22 12:16:28;;;;;;;;;4.33;4.33;;;;;22.44;81.70;99804.38;5070764;28;61602;-63
2022/04/22 12:18:55;;;;;;;;;3.00;3.00;;;;;22.45;81.82;99801.59;5069633;28;46428;-64
2022/04/22 12:21:22;;;;;;;;;3.00;3.00;;;;;22.45;81.53;99804.28;5073887;28;47443;-63
2022/04/22 12:23:51;;;;;;;;;4.33;3.00;;;;;22.45;81.78;99801.59;5070716;28;45485;-61
2022/04/22 12:26:22;;;;;;;;;2.00;2.00;;;;;22.46;81.66;99807.84;5067097;28;45846;-61
2022/04/22 12:29:05;;;;;;;;;3.00;3.00;;;;;22.45;81.43;99801.59;5071509;28;45457;-61